Time;durP1;ratioP1;P1;durP2;ratioP2;P2;SDS_P1;SDS_P2;PMS_P1;PMS_P2;Temp;Humidity;BMP_temperature;BMP_pressure;BME280_temperature;BME280_humidity;BME280_pressure;Samples;Min_cycle;Max_cycle;Signal;HPM_P1;HPM_P2
2021/04/11 00:01:39;;;;;;;34.80;14.07;;;;;;;3.96;74.66;98054.25;5071257;28;20062;-84
2021/04/11 00:04:05;;;;;;;19.77;11.23;;;;;;;3.78;75.65;98036.22;5028200;28;20037;-83
2021/04/11 00:06:30;;;;;;;28.45;12.15;;;;;;;3.76;76.07;98045.97;5044550;28;20489;-84
2021/04/11 00:08:56;;;;;;;26.73;11.98;;;;;;;3.71;77.06;98037.31;5022568;28;20500;-84
2021/04/11 00:11:22;;;;;;;22.50;10.60;;;;;;;3.65;77.33;98038.34;5019217;28;20050;-84
2021/04/11 00:13:53;;;;;;;20.80;9.73;;;;;;;3.60;77.20;98053.44;5058827;28;20161;-84
2021/04/11 00:16:19;;;;;;;20.90;9.80;;;;;;;3.53;76.51;98043.94;5058284;28;20024;-84
2021/04/11 00:18:45;;;;;;;20.48;9.50;;;;;;;3.49;76.76;98044.94;5058077;28;20032;-83
2021/04/11 00:21:10;;;;;;;20.05;10.18;;;;;;;3.47;77.57;98052.03;5044253;28;20032;-83
2021/04/11 00:23:36;;;;;;;21.98;11.27;;;;;;;3.41;79.80;98040.75;5059085;28;20501;-83
2021/04/11 00:26:03;;;;;;;20.80;10.77;;;;;;;3.49;79.08;98052.88;5025399;28;20029;-83
2021/04/11 00:28:29;;;;;;;22.35;11.13;;;;;;;3.52;78.52;98041.34;5017621;28;20033;-84
2021/04/11 00:30:55;;;;;;;24.98;11.95;;;;;;;3.59;78.72;98038.50;5058448;28;20025;-83
2021/04/11 00:33:37;;;;;;;28.40;10.73;;;;;;;3.58;78.81;98030.59;5057450;28;20025;-84
2021/04/11 00:36:06;;;;;;;23.98;10.98;;;;;;;3.66;78.13;98028.63;5021769;28;20120;-83
2021/04/11 00:38:31;;;;;;;25.27;11.90;;;;;;;3.63;78.82;98026.91;5022210;28;20069;-84
2021/04/11 00:41:01;;;;;;;27.55;11.73;;;;;;;3.66;79.24;98037.41;5050406;28;20083;-84
2021/04/11 00:43:27;;;;;;;22.95;11.77;;;;;;;3.67;77.26;98022.41;5052758;28;20112;-84
2021/04/11 00:46:24;;;;;;;27.40;13.05;;;;;;;3.71;77.74;98035.53;5042108;28;20542;-86
2021/04/11 00:48:50;;;;;;;28.02;12.98;;;;;;;3.66;78.21;98026.00;5032087;28;20528;-84
2021/04/11 00:51:24;;;;;;;30.25;14.32;;;;;;;3.67;78.48;98033.84;5027371;28;20044;-83
2021/04/11 00:53:50;;;;;;;28.83;12.82;;;;;;;3.59;78.37;98030.56;5038505;28;20520;-84
2021/04/11 00:56:16;;;;;;;27.80;13.85;;;;;;;3.52;78.52;98026.34;5027064;28;20037;-83
2021/04/11 00:58:42;;;;;;;31.45;15.30;;;;;;;3.60;78.85;98047.31;5024619;28;20029;-84
2021/04/11 01:01:08;;;;;;;31.98;14.75;;;;;;;3.56;78.33;98046.50;5024401;28;20037;-85
2021/04/11 01:03:37;;;;;;;30.70;13.90;;;;;;;3.49;79.83;98044.94;5040669;28;20025;-84
2021/04/11 01:06:09;;;;;;;30.20;14.77;;;;;;;3.40;80.50;98045.16;5041524;28;20036;-84
2021/04/11 01:08:35;;;;;;;35.47;16.55;;;;;;;3.35;79.85;98040.91;5019557;28;20059;-84
2021/04/11 01:11:13;;;;;;;41.03;19.55;;;;;;;3.19;80.27;98025.44;5016161;28;20137;-84
2021/04/11 01:13:43;;;;;;;39.38;19.02;;;;;;;3.25;80.51;98051.72;5021459;28;20104;-85
2021/04/11 01:16:10;;;;;;;37.35;18.52;;;;;;;3.21;81.94;98065.91;5062554;28;20033;-85
2021/04/11 01:18:36;;;;;;;41.40;18.30;;;;;;;3.14;81.63;98037.00;5026737;28;20025;-85
2021/04/11 01:21:07;;;;;;;38.20;18.15;;;;;;;3.14;82.28;98050.22;5057554;28;20136;-85
2021/04/11 01:23:48;;;;;;;37.33;17.83;;;;;;;3.14;81.21;98053.75;5022370;28;20092;-84
2021/04/11 01:26:15;;;;;;;39.55;17.40;;;;;;;3.14;81.65;98056.38;5042346;28;20037;-84
2021/04/11 01:28:43;;;;;;;40.47;18.55;;;;;;;3.15;80.91;98047.56;5040636;28;20035;-84
2021/04/11 01:31:09;;;;;;;38.75;18.13;;;;;;;3.19;81.54;98053.66;5022287;28;20039;-85
2021/04/11 01:33:39;;;;;;;42.33;18.55;;;;;;;3.27;81.52;98063.13;5062249;28;20052;-85
2021/04/11 01:36:06;;;;;;;49.70;19.83;;;;;;;3.21;81.94;98046.53;5018520;28;20485;-85
2021/04/11 01:38:32;;;;;;;41.55;20.27;;;;;;;3.22;83.30;98045.63;5024337;28;20083;-85
2021/04/11 01:41:16;;;;;;;45.15;19.90;;;;;;;3.14;83.18;98053.75;5057059;28;20040;-85
2021/04/11 01:43:42;;;;;;;38.72;19.45;;;;;;;3.17;82.02;98052.78;5055329;28;20029;-84
2021/04/11 01:46:09;;;;;;;39.97;18.88;;;;;;;3.08;82.94;98042.44;5052170;28;20029;-84
2021/04/11 01:48:35;;;;;;;49.85;22.30;;;;;;;3.12;81.96;98046.75;5040127;28;20485;-85
2021/04/11 01:51:02;;;;;;;47.13;22.52;;;;;;;3.02;82.39;98046.13;5022921;28;20082;-85
2021/04/11 01:53:29;;;;;;;43.40;18.98;;;;;;;3.01;82.78;98064.66;5026814;28;20152;-85
2021/04/11 01:55:55;;;;;;;53.78;19.90;;;;;;;2.86;82.88;98028.03;5024966;28;20111;-84
2021/04/11 01:58:21;;;;;;;51.97;21.98;;;;;;;2.99;83.58;98053.25;5027265;28;20032;-84
2021/04/11 02:00:49;;;;;;;50.70;22.13;;;;;;;2.97;83.30;98058.56;5068987;28;20112;-84
2021/04/11 02:03:18;;;;;;;45.15;21.52;;;;;;;2.88;83.16;98056.16;5021803;28;20029;-84
2021/04/11 02:05:45;;;;;;;49.95;22.63;;;;;;;2.87;83.48;98054.41;5050386;28;20067;-84
2021/04/11 02:08:15;;;;;;;48.05;22.55;;;;;;;2.70;84.28;98054.81;5035028;28;20021;-84
2021/04/11 02:10:44;;;;;;;37.85;18.80;;;;;;;2.66;83.70;98055.78;5027515;28;20041;-85
2021/04/11 02:13:11;;;;;;;43.63;20.00;;;;;;;2.72;84.41;98067.97;5057909;28;20025;-84
2021/04/11 02:15:41;;;;;;;37.80;18.65;;;;;;;2.69;84.57;98061.00;5023800;28;20500;-84
2021/04/11 02:18:09;;;;;;;40.00;17.83;;;;;;;2.60;86.12;98061.19;5023876;28;20483;-84
2021/04/11 02:20:35;;;;;;;41.40;17.52;;;;;;;2.63;85.65;98060.25;5046337;28;20094;-84
2021/04/11 02:23:01;;;;;;;32.90;16.70;;;;;;;2.64;85.98;98073.44;5056673;28;20112;-84
2021/04/11 02:25:31;;;;;;;40.05;19.42;;;;;;;2.53;86.24;98079.81;5020852;28;20025;-84
2021/04/11 02:27:59;;;;;;;38.50;18.08;;;;;;;2.45;85.86;98076.50;5037587;28;20485;-84
2021/04/11 02:30:25;;;;;;;33.00;15.70;;;;;;;2.38;84.93;98072.25;5056760;28;20040;-84
2021/04/11 02:32:51;;;;;;;33.30;14.68;;;;;;;2.41;84.31;98082.72;5064456;28;20021;-84
2021/04/11 02:35:22;;;;;;;24.20;12.68;;;;;;;2.26;83.65;98076.00;5021671;28;20029;-85
2021/04/11 02:37:52;;;;;;;26.25;13.45;;;;;;;2.21;84.05;98072.63;5029764;28;20045;-84
2021/04/11 02:40:22;;;;;;;24.15;12.70;;;;;;;2.26;83.54;98073.38;5054758;28;20108;-84
2021/04/11 02:42:48;;;;;;;27.77;12.15;;;;;;;2.23;83.41;98062.00;5057237;28;20039;-85
2021/04/11 02:45:22;;;;;;;24.98;12.30;;;;;;;2.22;84.20;98058.50;5059773;28;20715;-86
2021/04/11 02:50:35;;;;;;;24.70;12.07;;;;;;;2.24;83.95;98061.13;5044597;28;20033;-85
2021/04/11 02:53:14;;;;;;;34.13;15.07;;;;;;;2.18;83.46;98060.31;5033051;28;20036;-85
2021/04/11 02:55:41;;;;;;;30.55;16.15;;;;;;;2.12;83.09;98067.53;5019724;28;20029;-84
2021/04/11 02:58:09;;;;;;;26.67;14.20;;;;;;;2.07;84.95;98058.81;5049345;28;20158;-84
2021/04/11 03:00:38;;;;;;;31.48;13.75;;;;;;;2.16;85.30;98066.53;5020141;28;20127;-85
2021/04/11 03:03:04;;;;;;;24.88;12.25;;;;;;;2.11;86.30;98060.50;5043657;28;20128;-85
2021/04/11 03:05:30;;;;;;;28.90;13.68;;;;;;;2.05;86.23;98057.97;5030118;28;20033;-85
2021/04/11 03:08:04;;;;;;;29.88;12.88;;;;;;;2.01;86.88;98058.94;5055814;28;20036;-85
2021/04/11 03:10:51;;;;;;;27.52;12.20;;;;;;;2.08;87.56;98068.47;5022021;28;20035;-85
2021/04/11 03:13:17;;;;;;;25.52;12.00;;;;;;;2.04;86.55;98053.59;5049935;28;20033;-85
2021/04/11 03:15:44;;;;;;;28.73;11.85;;;;;;;2.12;86.82;98062.25;5018694;28;20153;-84
2021/04/11 03:18:10;;;;;;;25.52;11.75;;;;;;;2.11;85.95;98060.50;5029978;28;20500;-83
2021/04/11 03:20:38;;;;;;;23.13;11.15;;;;;;;2.02;86.14;98064.19;5056932;28;20037;-84
2021/04/11 03:23:05;;;;;;;26.85;11.70;;;;;;;1.92;86.22;98074.94;5041471;28;20029;-85
2021/04/11 03:25:33;;;;;;;23.63;11.80;;;;;;;1.90;87.05;98074.13;5020879;28;20121;-85
2021/04/11 03:28:04;;;;;;;33.72;13.05;;;;;;;1.94;87.22;98075.81;5025602;28;20032;-85
2021/04/11 03:30:35;;;;;;;25.33;12.70;;;;;;;1.79;88.12;98069.03;5023301;28;20032;-84
2021/04/11 03:33:09;;;;;;;19.70;10.48;;;;;;;1.84;87.44;98066.31;5033256;28;20070;-84
2021/04/11 03:35:38;;;;;;;26.95;11.65;;;;;;;1.86;87.67;98075.94;5023145;28;20555;-84
2021/04/11 03:38:05;;;;;;;23.20;11.32;;;;;;;1.88;87.63;98073.25;5026282;28;20459;-84
2021/04/11 03:40:34;;;;;;;23.95;11.32;;;;;;;1.91;85.86;98068.78;5020455;28;20095;-84
2021/04/11 03:43:10;;;;;;;25.17;10.60;;;;;;;1.93;86.78;98064.38;5061003;28;20021;-84
2021/04/11 03:45:36;;;;;;;25.27;12.38;;;;;;;1.89;88.38;98067.09;5042339;28;20048;-84
2021/04/11 03:48:21;;;;;;;29.58;13.80;;;;;;;2.01;87.88;98085.31;5025029;28;20061;-84
2021/04/11 03:50:59;;;;;;;33.88;15.52;;;;;;;2.00;87.70;98084.44;5079796;28;20083;-84
2021/04/11 03:53:29;;;;;;;41.17;19.30;;;;;;;2.06;87.93;98088.75;5020053;28;20524;-84
2021/04/11 03:55:59;;;;;;;45.13;19.58;;;;;;;2.07;88.23;98087.84;5028136;28;20484;-84
2021/04/11 03:58:28;;;;;;;127.47;52.78;;;;;;;2.10;87.60;98085.13;5024999;28;20021;-84
2021/04/11 04:01:02;;;;;;;41.92;19.33;;;;;;;2.17;87.88;98102.59;5044797;28;20027;-84
2021/04/11 04:03:29;;;;;;;40.80;18.23;;;;;;;2.22;87.42;98106.00;5056023;28;20036;-84
2021/04/11 04:05:55;;;;;;;42.28;18.80;;;;;;;2.31;86.58;98110.25;5058250;28;20031;-84
2021/04/11 04:08:23;;;;;;;41.88;16.65;;;;;;;2.30;86.44;98119.06;5050784;28;20112;-83
2021/04/11 04:10:48;;;;;;;46.35;20.25;;;;;;;2.32;87.09;98127.78;5023678;28;20053;-84
2021/04/11 04:13:32;;;;;;;50.33;21.75;;;;;;;2.41;86.82;98127.59;5037072;28;20112;-84
2021/04/11 04:15:58;;;;;;;59.53;20.92;;;;;;;2.43;86.83;98134.59;5056111;28;20032;-84
2021/04/11 04:18:29;;;;;;;52.40;22.65;;;;;;;2.41;85.99;98131.13;5044689;28;20014;-84
2021/04/11 04:21:16;;;;;;;45.15;19.48;;;;;;;2.49;87.35;98131.81;5030579;28;20033;-84
2021/04/11 04:24:09;;;;;;;120.68;39.95;;;;;;;2.49;86.65;98126.53;5041712;28;20063;-83
2021/04/11 04:26:57;;;;;;;47.95;20.02;;;;;;;2.42;85.38;98119.66;5050084;28;20025;-84
2021/04/11 04:29:45;;;;;;;56.85;30.63;;;;;;;2.53;85.58;98138.78;5040637;28;20477;-84
2021/04/11 04:32:43;;;;;;;64.75;27.80;;;;;;;2.51;85.22;98145.00;5068167;28;20045;-84
2021/04/11 04:35:24;;;;;;;49.10;19.35;;;;;;;2.53;85.04;98153.75;5041828;28;20594;-84
2021/04/11 04:38:16;;;;;;;38.65;20.25;;;;;;;2.56;84.80;98157.22;5022157;28;20036;-84
2021/04/11 04:40:44;;;;;;;41.55;20.42;;;;;;;2.64;84.49;98162.34;5041385;28;20162;-84
2021/04/11 04:43:35;;;;;;;46.45;22.77;;;;;;;2.67;84.03;98157.88;5057952;28;20064;-85
2021/04/11 04:46:19;;;;;;;45.80;23.38;;;;;;;2.80;83.17;98154.97;5021899;28;20485;-84
2021/04/11 04:49:19;;;;;;;46.38;22.75;;;;;;;2.78;83.50;98144.41;5033663;28;20120;-87
2021/04/11 04:51:50;;;;;;;45.67;20.23;;;;;;;3.06;83.67;98156.13;5036358;28;20033;-86
2021/04/11 04:54:57;;;;;;;44.05;17.83;;;;;;;3.41;82.57;98163.25;5026372;28;20515;-88
2021/04/11 04:57:34;;;;;;;41.20;17.45;;;;;;;4.43;77.61;98158.78;5015505;28;20029;-86
2021/04/11 05:00:06;;;;;;;56.28;22.00;;;;;;;5.36;72.36;98156.91;5021704;28;20058;-87
2021/04/11 05:03:01;;;;;;;48.58;22.67;;;;;;;6.59;66.94;98163.34;5035745;28;20071;-86
2021/04/11 05:05:28;;;;;;;53.03;26.67;;;;;;;7.11;63.37;98163.16;5022204;28;20093;-86
2021/04/11 05:08:09;;;;;;;63.00;31.23;;;;;;;6.93;62.38;98162.06;4992555;28;20061;-89
2021/04/11 05:10:43;;;;;;;67.95;35.17;;;;;;;6.63;64.54;98170.28;5022661;28;20501;-85
2021/04/11 05:13:12;;;;;;;69.60;35.05;;;;;;;6.85;63.88;98169.47;5054434;28;20024;-85
2021/04/11 05:15:55;;;;;;;70.28;36.05;;;;;;;6.92;60.87;98106.28;5041753;28;20048;-87
2021/04/11 05:18:50;;;;;;;68.70;35.30;;;;;;;7.56;59.24;98125.88;5034136;28;20025;-88
2021/04/11 05:21:20;;;;;;;66.72;35.85;;;;;;;8.79;55.59;98123.22;5055689;28;20033;-89
2021/04/11 05:23:55;;;;;;;62.08;35.40;;;;;;;10.50;50.61;98179.81;5020249;28;20041;-87
2021/04/11 05:26:53;;;;;;;67.18;35.70;;;;;;;11.60;47.15;98180.09;5026177;28;20040;-89
2021/04/11 05:29:31;;;;;;;58.85;32.42;;;;;;;12.40;44.93;98179.00;5042049;28;20036;-88
2021/04/11 05:31:57;;;;;;;59.72;34.85;;;;;;;13.16;41.59;98150.25;5016845;28;20116;-86
2021/04/11 05:34:24;;;;;;;69.05;35.33;;;;;;;14.61;39.86;98170.22;4999982;28;20035;-87
2021/04/11 05:37:10;;;;;;;67.68;36.70;;;;;;;15.99;36.37;98181.06;5003443;28;20152;-86
2021/04/11 05:39:48;;;;;;;82.18;40.65;;;;;;;16.55;34.66;98169.59;5002834;28;20037;-85
2021/04/11 05:42:47;;;;;;;78.95;38.47;;;;;;;17.03;33.97;98170.38;5037094;28;20116;-86
2021/04/11 05:45:41;;;;;;;70.57;32.58;;;;;;;18.02;32.34;98167.84;5035852;28;20032;-86
2021/04/11 05:48:18;;;;;;;42.00;21.67;;;;;;;18.06;31.61;98163.88;5027134;28;20492;-86
2021/04/11 05:50:44;;;;;;;29.48;17.42;;;;;;;18.41;31.34;98165.41;5044375;28;21362;-87
2021/04/11 05:53:22;;;;;;;30.27;17.15;;;;;;;19.13;30.18;98159.31;5007978;28;20120;-87
2021/04/11 05:56:20;;;;;;;49.05;28.15;;;;;;;19.67;29.25;98170.75;5005079;28;20115;-87
2021/04/11 05:58:49;;;;;;;88.93;46.72;;;;;;;19.80;28.28;98155.09;5034207;28;20041;-87
2021/04/11 06:01:18;;;;;;;46.55;24.17;;;;;;;20.36;28.17;98154.56;5075144;28;20163;-86
2021/04/11 06:03:57;;;;;;;47.97;26.92;;;;;;;20.63;27.54;98149.28;5048617;28;20037;-87
2021/04/11 06:06:28;;;;;;;34.63;20.15;;;;;;;21.43;26.52;98148.94;5029418;28;20024;-86
2021/04/11 06:09:25;;;;;;;36.95;20.00;;;;;;;21.83;25.20;98143.19;5064551;28;20034;-88
2021/04/11 06:11:55;;;;;;;28.17;15.55;;;;;;;22.31;25.08;98145.66;5039142;28;20057;-87
2021/04/11 06:14:25;;;;;;;27.60;14.27;;;;;;;22.11;24.19;98129.44;5044626;28;20091;-86
2021/04/11 06:16:51;;;;;;;50.55;18.45;;;;;;;21.19;25.44;98143.13;5027282;28;20100;-86
2021/04/11 06:19:18;;;;;;;39.45;18.85;;;;;;;21.36;25.46;98148.66;5023847;28;20029;-87
2021/04/11 06:22:25;;;;;;;42.78;18.27;;;;;;;22.45;24.58;98146.00;5039406;28;20489;-86
2021/04/11 06:24:52;;;;;;;38.75;19.70;;;;;;;21.79;25.16;98148.06;5033257;28;20072;-87
2021/04/11 06:27:31;;;;;;;46.53;20.45;;;;;;;20.49;26.20;98145.13;5079245;28;20146;-87
2021/04/11 06:30:15;;;;;;;35.33;19.35;;;;;;;20.73;27.06;98144.72;5045171;28;20048;-87
2021/04/11 06:32:45;;;;;;;56.83;25.05;;;;;;;21.90;24.64;98131.53;5042284;28;20021;-87
2021/04/11 06:35:12;;;;;;;39.78;23.65;;;;;;;21.85;24.79;98136.56;5021511;28;20116;-88
2021/04/11 06:37:39;;;;;;;46.63;26.55;;;;;;;22.49;24.05;98132.91;5026094;28;20504;-87
2021/04/11 06:40:19;;;;;;;48.10;29.83;;;;;;;22.40;24.52;98131.09;5067579;28;20087;-87
2021/04/11 06:43:42;;;;;;;45.88;28.40;;;;;;;23.57;23.96;98150.75;5022003;28;20517;-87
2021/04/11 06:46:39;;;;;;;62.90;28.00;;;;;;;23.66;23.36;98154.38;5010357;28;20041;-88
2021/04/11 06:49:19;;;;;;;57.88;23.45;;;;;;;23.30;22.98;98159.06;4960775;28;20034;-88
2021/04/11 06:52:03;;;;;;;33.25;18.42;;;;;;;23.00;23.14;98151.34;5023388;28;20517;-87
2021/04/11 06:54:56;;;;;;;28.10;15.93;;;;;;;23.54;23.56;98155.69;5056076;28;20029;-88
2021/04/11 06:57:35;;;;;;;25.88;13.02;;;;;;;23.90;22.58;98162.75;5047086;28;20025;-87
2021/04/11 07:00:14;;;;;;;20.38;13.68;;;;;;;24.46;21.98;98158.50;5063723;28;20082;-87
2021/04/11 07:02:42;;;;;;;21.67;11.80;;;;;;;24.44;21.95;98155.97;5062251;28;20033;-87
2021/04/11 07:05:23;;;;;;;29.00;11.02;;;;;;;24.29;23.01;98165.84;5038048;28;20040;-88
2021/04/11 07:07:55;;;;;;;33.20;12.27;;;;;;;24.01;22.74;98164.31;5037669;28;20033;-87
2021/04/11 07:10:37;;;;;;;31.60;10.57;;;;;;;24.53;21.68;98154.09;5045645;28;20033;-89
2021/04/11 07:13:03;;;;;;;;;;;;;;;24.18;23.35;98164.25;5021128;28;20049;-89
2021/04/11 07:15:51;;;;;;;35.97;12.70;;;;;;;24.30;22.93;98169.44;5041039;28;20309;-90
2021/04/11 07:18:34;;;;;;;26.73;12.80;;;;;;;23.63;22.97;98155.56;5039599;28;20041;-89
2021/04/11 07:21:09;;;;;;;;;;;;;;;23.41;22.34;98156.09;5046503;28;20116;-88
2021/04/11 07:23:47;;;;;;;28.35;13.05;;;;;;;22.15;24.31;98163.53;5045466;28;19921;-87
2021/04/11 07:26:25;;;;;;;24.05;12.73;;;;;;;23.52;22.88;98166.78;5041702;28;20030;-89
2021/04/11 07:29:18;;;;;;;17.60;10.20;;;;;;;23.61;22.14;98160.34;5069211;28;20030;-88
2021/04/11 07:32:06;;;;;;;16.63;9.70;;;;;;;25.33;20.79;98162.41;5051286;28;20044;-89
2021/04/11 07:35:22;;;;;;;16.92;8.88;;;;;;;25.43;20.87;98158.63;5041867;28;20539;-91
2021/04/11 07:37:53;;;;;;;17.65;10.20;;;;;;;25.04;20.43;98159.31;4996732;28;20475;-87
2021/04/11 07:40:22;;;;;;;13.32;8.80;;;;;;;26.22;19.90;98154.03;5050753;28;20068;-87
2021/04/11 07:42:57;;;;;;;20.48;11.05;;;;;;;26.64;19.14;98158.28;5037825;28;20056;-88
2021/04/11 07:45:44;;;;;;;31.27;9.95;;;;;;;26.38;20.52;98159.44;5038150;28;20485;-88
2021/04/11 07:48:57;;;;;;;21.52;8.35;;;;;;;26.03;20.14;98157.16;5058302;28;20041;-76
2021/04/11 07:51:29;;;;;;;18.80;10.90;;;;;;;27.18;19.11;98151.72;5023091;28;20471;-76
2021/04/11 07:54:00;;;;;;;14.73;8.35;;;;;;;27.39;19.14;98154.63;5064698;28;20040;-76
2021/04/11 07:56:43;;;;;;;19.92;11.60;;;;;;;27.62;18.33;98137.25;5044348;28;20485;-74
2021/04/11 07:59:15;;;;;;;21.48;12.73;;;;;;;27.62;18.83;98140.88;5044146;28;20512;-74
2021/04/11 08:01:51;;;;;;;21.92;11.38;;;;;;;27.76;18.94;98152.91;5047733;28;20037;-74
2021/04/11 08:04:26;;;;;;;15.80;9.60;;;;;;;27.67;19.37;98143.03;5062864;28;20041;-74
2021/04/11 08:07:03;;;;;;;14.68;8.98;;;;;;;27.43;19.23;98150.50;5040186;28;20029;-74
2021/04/11 08:10:01;;;;;;;17.02;8.93;;;;;;;26.90;18.75;98134.94;5041003;28;20033;-75
2021/04/11 08:13:03;;;;;;;15.38;8.15;;;;;;;26.63;17.96;98132.72;5041989;28;20169;-74
2021/04/11 08:16:13;;;;;;;8.63;5.30;;;;;;;27.69;16.21;98122.56;5038299;28;20059;-86
2021/04/11 08:19:23;;;;;;;16.73;6.30;;;;;;;27.96;16.76;98127.38;5059130;28;20022;-87
2021/04/11 08:21:55;;;;;;;20.35;12.70;;;;;;;28.00;16.74;98116.88;5041737;28;20025;-86
2021/04/11 08:24:39;;;;;;;11.85;7.53;;;;;;;27.32;17.10;98120.66;5037027;28;20500;-87
2021/04/11 08:27:26;;;;;;;10.65;6.97;;;;;;;27.33;17.26;98124.28;5038275;28;20028;-87
2021/04/11 08:30:33;;;;;;;11.77;7.85;;;;;;;27.82;17.15;98131.00;5058723;28;20041;-86
2021/04/11 08:33:17;;;;;;;16.40;7.90;;;;;;;28.34;16.22;98127.28;5030853;28;20033;-86
2021/04/11 08:35:57;;;;;;;11.88;6.32;;;;;;;28.35;17.01;98129.88;5075390;28;20096;-86
2021/04/11 08:38:45;;;;;;;18.73;6.90;;;;;;;27.52;16.64;98118.28;5073320;28;20087;-87
2021/04/11 08:41:21;;;;;;;14.93;6.82;;;;;;;28.13;15.65;98125.34;5057338;28;20094;-88
2021/04/11 08:44:08;;;;;;;11.07;4.85;;;;;;;29.03;16.00;98123.03;5021128;28;20038;-88
2021/04/11 08:46:55;;;;;;;12.80;5.43;;;;;;;29.12;16.73;98119.09;5043132;28;20021;-88
2021/04/11 08:49:25;;;;;;;14.88;5.57;;;;;;;29.72;15.88;98125.97;5062105;28;20037;-87
2021/04/11 08:52:13;;;;;;;10.95;4.90;;;;;;;29.63;14.71;98114.22;5055676;28;20092;-87
2021/04/11 08:54:49;;;;;;;7.47;4.18;;;;;;;30.48;13.47;98095.44;5047618;28;20032;-88
2021/04/11 08:57:20;;;;;;;18.67;5.00;;;;;;;31.03;13.33;98110.91;5026801;28;20087;-88
2021/04/11 08:59:59;;;;;;;17.88;4.35;;;;;;;30.59;15.17;98103.13;5037774;28;20040;-88
2021/04/11 09:02:32;;;;;;;20.83;6.20;;;;;;;29.98;14.95;98110.47;5036234;28;20496;-87
2021/04/11 09:05:22;;;;;;;5.75;3.60;;;;;;;29.75;15.34;98104.34;5054062;28;20033;-87
2021/04/11 09:08:26;;;;;;;9.35;4.18;;;;;;;31.11;13.22;98096.03;5022037;28;20055;-87
2021/04/11 09:11:29;;;;;;;11.10;3.53;;;;;;;31.57;12.46;98090.50;5028726;28;20053;-88
2021/04/11 09:13:58;;;;;;;10.15;4.55;;;;;;;27.93;14.53;98077.44;5059072;28;20032;-87
2021/04/11 09:16:34;;;;;;;8.27;3.88;;;;;;;28.12;14.89;98076.84;5043810;28;20040;-87
2021/04/11 09:19:03;;;;;;;6.78;3.42;;;;;;;29.30;14.40;98072.63;5067275;28;20039;-89
2021/04/11 09:21:36;;;;;;;11.82;3.67;;;;;;;29.81;13.59;98058.56;5045101;28;20029;-89
2021/04/11 09:24:08;;;;;;;6.65;4.07;;;;;;;29.04;15.38;98061.34;5043850;28;20064;-89
2021/04/11 09:26:58;;;;;;;7.75;4.28;;;;;;;29.85;13.61;98065.38;5038682;28;20025;-90
2021/04/11 09:29:53;;;;;;;10.88;5.25;;;;;;;30.39;14.40;98058.03;5051216;28;20158;-87
2021/04/11 09:32:49;;;;;;;10.80;5.00;;;;;;;31.95;13.59;98066.59;5036840;28;20029;-88
2021/04/11 09:35:23;;;;;;;6.97;3.97;;;;;;;31.74;12.17;98053.03;5042122;28;20033;-87
2021/04/11 09:38:07;;;;;;;11.85;4.95;;;;;;;31.32;14.11;98067.28;5052277;28;20060;-88
2021/04/11 09:40:35;;;;;;;20.30;5.50;;;;;;;31.08;13.53;98057.75;5071768;28;20451;-88
2021/04/11 09:43:28;;;;;;;4.60;3.08;;;;;;;31.48;13.33;98053.91;5064632;28;20025;-88
2021/04/11 09:46:06;;;;;;;7.97;3.45;;;;;;;30.33;13.38;98047.75;5079882;28;20037;-92
2021/04/11 09:49:14;;;;;;;8.35;5.22;;;;;;;30.79;12.41;98036.00;5061226;28;20025;-88
2021/04/11 09:52:05;;;;;;;6.03;3.60;;;;;;;31.39;12.25;98041.34;5036730;28;20029;-87
2021/04/11 09:54:40;;;;;;;10.55;3.20;;;;;;;30.87;11.75;98033.03;5046421;28;20141;-90
2021/04/11 09:57:11;;;;;;;9.45;2.90;;;;;;;30.02;13.63;98033.66;5058457;28;20033;-75
2021/04/11 09:59:42;;;;;;;6.38;2.83;;;;;;;30.31;12.22;98021.41;5035608;28;20057;-75
2021/04/11 10:02:46;;;;;;;7.37;3.80;;;;;;;30.70;12.05;98024.31;5035324;28;20104;-75
2021/04/11 10:05:20;;;;;;;4.35;3.13;;;;;;;31.42;12.04;98027.09;5026179;28;20038;-74
2021/04/11 10:07:51;;;;;;;7.72;3.42;;;;;;;31.08;11.90;98027.31;5052067;28;20043;-74
2021/04/11 10:10:23;;;;;;;6.82;4.80;;;;;;;30.98;10.48;98000.09;5044728;28;20033;-74
2021/04/11 10:12:56;;;;;;;5.30;2.90;;;;;;;29.91;11.35;97998.34;5036006;28;20022;-76
2021/04/11 10:15:33;;;;;;;5.22;3.42;;;;;;;30.77;11.43;97993.91;5039120;28;20043;-73
2021/04/11 10:18:01;;;;;;;9.20;3.13;;;;;;;31.20;10.92;98010.94;5040673;28;20032;-74
2021/04/11 10:20:55;;;;;;;7.10;3.85;;;;;;;31.01;11.71;98005.22;5047512;28;20095;-74
2021/04/11 10:23:27;;;;;;;5.43;2.50;;;;;;;31.11;11.92;98004.78;5043408;28;20029;-73
2021/04/11 10:25:59;;;;;;;5.72;3.05;;;;;;;32.17;11.56;97995.19;5037475;28;20087;-74
2021/04/11 10:28:53;;;;;;;7.25;2.97;;;;;;;30.53;11.59;97993.47;5042915;28;20095;-73
2021/04/11 10:31:34;;;;;;;5.55;3.25;;;;;;;29.52;13.04;97996.22;5046745;28;20061;-73
2021/04/11 10:34:27;;;;;;;4.53;3.13;;;;;;;29.83;12.58;98004.91;5039203;28;20052;-81
2021/04/11 10:37:17;;;;;;;9.15;3.60;;;;;;;30.61;12.37;98007.06;5028385;28;20033;-76
2021/04/11 10:39:57;;;;;;;5.88;3.67;;;;;;;30.95;12.48;98013.50;5048921;28;20025;-76
2021/04/11 10:43:02;;;;;;;11.63;4.80;;;;;;;31.93;11.83;98023.59;5044416;28;20048;-73
2021/04/11 10:46:01;;;;;;;7.78;3.15;;;;;;;31.51;12.87;98022.22;5036965;28;20032;-73
2021/04/11 10:48:45;;;;;;;10.38;6.03;;;;;;;32.40;12.16;98008.47;5046462;28;20038;-74
2021/04/11 10:51:26;;;;;;;10.25;4.38;;;;;;;32.47;12.14;98007.38;5045480;28;20056;-74
2021/04/11 10:54:08;;;;;;;7.07;3.70;;;;;;;32.54;12.40;98001.81;5047472;28;20029;-74
2021/04/11 10:56:36;;;;;;;7.03;4.53;;;;;;;33.12;12.26;98002.47;5042856;28;20107;-74
2021/04/11 10:59:11;;;;;;;9.68;3.50;;;;;;;31.68;12.10;98002.19;5047929;28;20535;-74
2021/04/11 11:02:13;;;;;;;4.20;3.25;;;;;;;31.59;12.06;97995.16;5055585;28;20417;-74
2021/04/11 11:04:38;;;;;;;5.75;3.35;;;;;;;31.85;11.95;97991.47;5038034;28;20057;-74
2021/04/11 11:07:07;;;;;;;8.27;3.20;;;;;;;32.57;11.54;97988.38;5032658;28;20076;-74
2021/04/11 11:09:41;;;;;;;6.60;3.00;;;;;;;32.68;12.00;97992.34;5039230;28;20048;-74
2021/04/11 11:12:26;;;;;;;5.30;3.10;;;;;;;33.74;12.20;97993.13;5047904;28;20095;-74
2021/04/11 11:15:23;;;;;;;26.55;3.97;;;;;;;33.12;11.59;97977.53;5068980;28;20516;-74
2021/04/11 11:18:09;;;;;;;5.78;3.45;;;;;;;33.19;12.59;97981.91;5066103;28;20041;-74
2021/04/11 11:20:47;;;;;;;8.63;3.42;;;;;;;32.43;11.36;97967.31;5084131;28;20076;-74
2021/04/11 11:23:50;;;;;;;4.05;3.03;;;;;;;32.33;11.67;97958.69;5041430;28;20578;-74
2021/04/11 11:26:27;;;;;;;8.25;3.45;;;;;;;33.10;11.09;97965.81;5040076;28;20432;-74
2021/04/11 11:28:59;;;;;;;4.68;2.78;;;;;;;32.08;12.50;97966.06;5042462;28;20033;-74
2021/04/11 11:31:51;;;;;;;5.20;2.72;;;;;;;28.94;12.54;97950.63;5031960;28;20100;-74
2021/04/11 11:34:35;;;;;;;6.68;3.25;;;;;;;29.97;12.68;97947.84;5033014;28;20103;-76
2021/04/11 11:37:31;;;;;;;6.88;2.70;;;;;;;31.53;11.75;97954.53;5045793;28;20032;-74
2021/04/11 11:40:09;;;;;;;10.32;3.80;;;;;;;32.30;11.87;97947.19;5053322;28;20112;-74
2021/04/11 11:42:47;;;;;;;12.63;3.13;;;;;;;32.48;10.83;97945.38;5056239;28;20033;-75
2021/04/11 11:45:41;;;;;;;7.05;3.03;;;;;;;30.36;12.43;97941.56;5042288;28;20032;-75
2021/04/11 11:48:16;;;;;;;7.57;2.72;;;;;;;30.77;12.50;97935.88;5033541;28;20484;-74
2021/04/11 11:51:01;;;;;;;8.68;3.78;;;;;;;32.47;11.63;97942.81;5031605;28;20025;-75
2021/04/11 11:53:36;;;;;;;9.60;2.80;;;;;;;32.77;11.95;97948.56;5064243;28;20029;-74
2021/04/11 11:56:08;;;;;;;12.18;4.53;;;;;;;32.70;12.51;97946.69;5037022;28;20025;-74
2021/04/11 11:58:49;;;;;;;4.72;2.90;;;;;;;32.19;10.94;97929.34;5034126;28;20041;-74
2021/04/11 12:01:25;;;;;;;7.97;2.90;;;;;;;33.55;12.43;97938.66;5031583;28;20032;-74
2021/04/11 12:04:26;;;;;;;6.63;3.17;;;;;;;33.57;10.62;97937.34;5040207;28;20079;-74
2021/04/11 12:06:54;;;;;;;6.47;2.77;;;;;;;33.75;10.56;97926.25;5032823;28;20049;-74
2021/04/11 12:09:42;;;;;;;7.45;2.75;;;;;;;34.19;10.88;97915.88;5040074;28;20055;-74
2021/04/11 12:12:28;;;;;;;8.32;2.63;;;;;;;34.81;9.21;97908.94;5039487;28;20064;-74
2021/04/11 12:15:05;;;;;;;8.43;3.17;;;;;;;34.90;9.63;97917.75;5016387;28;20513;-77
2021/04/11 12:17:58;;;;;;;5.53;2.78;;;;;;;33.42;11.22;97903.56;5040854;28;20116;-75